Here is the Quick Look data you requested

The Data originates at the National Weather Service, and is made available here by the UAlbany Department of Atmospheric and Environmental Sciences

Surface Observations

KMTV 151955Z AUTO 34005KT 10SM CLR 36/11 A2998 RMK AO2 T03610110=
KMTV 152015Z AUTO 31008KT 10SM CLR 37/11 A2997 RMK AO2 T03660107=
KMTV 152035Z AUTO 28003KT 10SM CLR 36/10 A2997 RMK AO2 T03610102=
KMTV 152055Z AUTO 00000KT 10SM SCT085 36/11 A2996 RMK AO2 T03630111=
KMTV 152115Z AUTO 18005KT 10SM SCT085 36/11 A2996 RMK AO2 T03640114=
KMTV 152135Z AUTO 24005KT 10SM CLR 36/11 A2996 RMK AO2 T03620112=
KMTV 152155Z AUTO 25005KT 10SM CLR 36/11 A2995 RMK AO2 T03600105=
KMTV 152215Z AUTO 25005KT 10SM CLR 36/11 A2995 RMK AO2 T03600105=
KMTV 152235Z AUTO 25004KT 10SM CLR 36/11 A2994 RMK AO2 T03570110=
KMTV 152255Z AUTO 24004KT 10SM CLR 35/11 A2993 RMK AO2 T03520111=
KMTV 152315Z AUTO 26009KT 10SM CLR 35/12 A2995 RMK AO2 T03450123=
KMTV 152335Z AUTO 25009KT 10SM CLR 33/14 A2996 RMK AO2 T03310138=
KMTV 152355Z AUTO 25008KT 10SM CLR 32/13 A2997 RMK AO2 T03200131 10371 20320=
KMTV 160015Z AUTO 24006KT 10SM CLR 31/14 A2998 RMK AO2 T03100141=
KMTV 160035Z AUTO 24004KT 10SM CLR 30/15 A2999 RMK AO2 T03000147=
KMTV 160055Z AUTO 26003KT 10SM CLR 29/15 A2999 RMK AO2 T02910153=
KMTV 160115Z AUTO 20003KT 10SM CLR 29/16 A2999 RMK AO2 T02860158=
KMTV 160135Z AUTO 18003KT 10SM CLR 28/16 A3000 RMK AO2 T02820162=
KMTV 160155Z AUTO 00000KT 10SM CLR 27/17 A2999 RMK AO2 T02700166=
KMTV 160215Z AUTO 00000KT 10SM CLR 28/17 A2999 RMK AO2 T02750166=
KMTV 160235Z AUTO 00000KT 10SM CLR 27/17 A2999 RMK AO2 T02700169=
KMTV 160255Z AUTO 00000KT 10SM CLR 26/17 A2998 RMK AO2 T02640171=
KMTV 160315Z AUTO 00000KT 10SM CLR 25/17 A2998 RMK AO2 T02540173=
KMTV 160335Z AUTO 00000KT 10SM CLR 25/18 A2998 RMK AO2 T02540175=
KMTV 160355Z AUTO 18003KT 10SM CLR 24/18 A2998 RMK AO2 T02420178=
KMTV 160415Z AUTO 18004KT 10SM CLR 25/18 A2998 RMK AO2 T02480179=
KMTV 160435Z AUTO 00000KT 10SM CLR 25/18 A2997 RMK AO2 T02480180=
KMTV 160455Z AUTO 00000KT 10SM CLR 24/18 A2997 RMK AO2 T02430181 403710176=
KMTV 160515Z AUTO 00000KT 10SM CLR 24/18 A2997 RMK AO2 T02350181=
KMTV 160535Z AUTO 00000KT 10SM CLR 22/18 A2997 RMK AO2 T02210184=
KMTV 160555Z AUTO 00000KT 10SM CLR 22/19 A2997 RMK AO2 T02210185 10320 20213=
KMTV 160615Z AUTO 19003KT 10SM CLR 22/19 A2997 RMK AO2 T02160185=
KMTV 160635Z AUTO 18004KT 10SM CLR 22/19 A2997 RMK AO2 T02200186=
KMTV 160655Z AUTO 00000KT 10SM CLR 22/19 A2997 RMK AO2 T02240185=
KMTV 160715Z AUTO 18003KT 10SM CLR 22/19 A2997 RMK AO2 T02200186=
KMTV 160735Z AUTO 00000KT 10SM CLR 22/19 A2998 RMK AO2 T02210185=
KMTV 160755Z AUTO 00000KT 10SM CLR 22/19 A2998 RMK AO2 T02160187=
KMTV 160815Z AUTO 00000KT 10SM CLR 21/19 A2999 RMK AO2 T02130189=
KMTV 160835Z AUTO 00000KT 2SM HZ CLR 22/19 A2999 RMK AO2 T02200190=
KMTV 160855Z AUTO 00000KT 2SM HZ CLR 22/19 A2998 RMK AO2 T02160191=
KMTV 160915Z AUTO 00000KT 10SM CLR 23/19 A2998 RMK AO2 T02250191=
KMTV 160935Z AUTO 00000KT 10SM CLR 22/19 A2997 RMK AO2 T02150191=
KMTV 160955Z AUTO 00000KT 10SM CLR 21/19 A2998 RMK AO2 T02110191=
KMTV 161015Z AUTO 00000KT 10SM CLR 21/19 A2998 RMK AO2 T02080190=
KMTV 161035Z AUTO 00000KT 10SM CLR 21/19 A2999 RMK AO2 T02050190=
KMTV 161055Z AUTO 00000KT 10SM CLR 21/19 A3000 RMK AO2 T02120194=
KMTV 161115Z AUTO 00000KT 10SM CLR 22/20 A3000 RMK AO2 T02240197=
KMTV 161135Z AUTO 00000KT 10SM CLR 23/20 A3000 RMK AO2 T02340196=
KMTV 161155Z AUTO 00000KT 10SM CLR 24/20 A3000 RMK AO2 T02400195 10240 20205=
KMTV 161215Z AUTO 00000KT 10SM CLR 25/20 A3000 RMK AO2 T02450196=
KMTV 161235Z AUTO 00000KT 10SM CLR 25/19 A3001 RMK AO2 T02500194=
KMTV 161255Z AUTO 00000KT 10SM CLR 26/20 A3002 RMK AO2 T02600195=
KMTV 161315Z AUTO 00000KT 10SM CLR 27/19 A3002 RMK AO2 T02660192=
KMTV 161335Z AUTO 20003KT 10SM CLR 28/20 A3002 RMK AO2 T02750197=
KMTV 161355Z AUTO 00000KT 10SM SCT110 29/20 A3002 RMK AO2 T02860202=
KMTV 161415Z AUTO 18003KT 10SM SCT110 29/20 A3002 RMK AO2 T02900202=
KMTV 161435Z AUTO 24003KT 10SM CLR 30/20 A3002 RMK AO2 T03010195=
KMTV 161455Z AUTO 20003KT 10SM CLR 31/19 A3002 RMK AO2 T03110191=
KMTV 161515Z AUTO 19005KT 10SM CLR 32/19 A3001 RMK AO2 T03150189=
KMTV 161535Z AUTO 18004KT 10SM CLR 32/18 A3002 RMK AO2 T03190184=
KMTV 161555Z AUTO 19006KT 10SM CLR 33/19 A3001 RMK AO2 T03260189=
KMTV 161615Z AUTO 20006KT 10SM CLR 33/18 A3000 RMK AO2 T03300184=
KMTV 161635Z AUTO 24008KT 10SM CLR 33/19 A3000 RMK AO2 T03290188=
KMTV 161655Z AUTO 19007KT 10SM CLR 34/19 A3000 RMK AO2 T03370190=
KMTV 161715Z AUTO 20004KT 10SM CLR 34/19 A2999 RMK AO2 T03400190=
KMTV 161735Z AUTO 25008KT 10SM CLR 34/18 A2997 RMK AO2 T03400176=
KMTV 161755Z AUTO 21006KT 10SM CLR 35/17 A2997 RMK AO2 T03500166 10351 20240=
KMTV 161815Z AUTO 21009KT 10SM CLR 35/16 A2996 RMK AO2 T03510163=
KMTV 161835Z AUTO 18010G14KT 10SM SCT065 BKN090 35/17 A2995 RMK AO2 T03460174=
KMTV 161855Z AUTO 20006G14KT 10SM SCT065 SCT090 36/17 A2995 RMK AO2 T03550170=
KMTV 161915Z AUTO 20008G14KT 160V250 10SM CLR 35/17 A2995 RMK AO2 T03530166=
KMTV 161935Z AUTO 21007G18KT 180V250 10SM CLR 36/16 A2995 RMK AO2 T03550158=
KMTV 161955Z AUTO 24006KT 10SM SCT065 34/16 A2994 RMK AO2 T03400159=
KMTV 162015Z AUTO 25007KT 10SM -RA BKN060 BKN090 32/17 A2994 RMK AO2 T03190174=

Decoded Surface Observations


The weather observed at MARTINSVILLE, VA (KMTV) at 03:55 PM EDT was:
  The skies were clear.
  Temperature: 97F ( 36C)  Dewpoint:  52F ( 11C)  Relative Humidity:  22%
  Winds from the NNW(340 degs) at  6 mph.
  Altimeter:29.98 inches of mercury.
  The prevailing visibility was 10 miles.

The weather observed at MARTINSVILLE, VA (KMTV) at 04:15 PM EDT was:
  The skies were clear.
  Temperature: 99F ( 37C)  Dewpoint:  52F ( 11C)  Relative Humidity:  21%
  Winds from the NW (310 degs) at  9 mph.
  Altimeter:29.97 inches of mercury.
  The prevailing visibility was 10 miles.

The weather observed at MARTINSVILLE, VA (KMTV) at 04:35 PM EDT was:
  The skies were clear.
  Temperature: 97F ( 36C)  Dewpoint:  50F ( 10C)  Relative Humidity:  21%
  Winds from the W  (280 degs) at  3 mph.
  Altimeter:29.97 inches of mercury.
  The prevailing visibility was 10 miles.

The weather observed at MARTINSVILLE, VA (KMTV) at 04:55 PM EDT was:
  The skies were partly cloudy.
  Temperature: 97F ( 36C)  Dewpoint:  52F ( 11C)  Relative Humidity:  22%
  Winds from the CLM(CLM degs) at  0 mph.
  Altimeter:29.96 inches of mercury.
  The prevailing visibility was 10 miles.

The weather observed at MARTINSVILLE, VA (KMTV) at 05:15 PM EDT was:
  The skies were partly cloudy.
  Temperature: 97F ( 36C)  Dewpoint:  52F ( 11C)  Relative Humidity:  22%
  Winds from the S  (180 degs) at  6 mph.
  Altimeter:29.96 inches of mercury.
  The prevailing visibility was 10 miles.

The weather observed at MARTINSVILLE, VA (KMTV) at 05:35 PM EDT was:
  The skies were clear.
  Temperature: 97F ( 36C)  Dewpoint:  52F ( 11C)  Relative Humidity:  22%
  Winds from the SW (240 degs) at  6 mph.
  Altimeter:29.96 inches of mercury.
  The prevailing visibility was 10 miles.

The weather observed at MARTINSVILLE, VA (KMTV) at 05:55 PM EDT was:
  The skies were clear.
  Temperature: 97F ( 36C)  Dewpoint:  52F ( 11C)  Relative Humidity:  22%
  Winds from the WSW(250 degs) at  6 mph.
  Altimeter:29.95 inches of mercury.
  The prevailing visibility was 10 miles.

The weather observed at MARTINSVILLE, VA (KMTV) at 06:15 PM EDT was:
  The skies were clear.
  Temperature: 97F ( 36C)  Dewpoint:  52F ( 11C)  Relative Humidity:  22%
  Winds from the WSW(250 degs) at  6 mph.
  Altimeter:29.95 inches of mercury.
  The prevailing visibility was 10 miles.

The weather observed at MARTINSVILLE, VA (KMTV) at 06:35 PM EDT was:
  The skies were clear.
  Temperature: 97F ( 36C)  Dewpoint:  52F ( 11C)  Relative Humidity:  22%
  Winds from the WSW(250 degs) at  5 mph.
  Altimeter:29.94 inches of mercury.
  The prevailing visibility was 10 miles.

The weather observed at MARTINSVILLE, VA (KMTV) at 06:55 PM EDT was:
  The skies were clear.
  Temperature: 95F ( 35C)  Dewpoint:  52F ( 11C)  Relative Humidity:  23%
  Winds from the SW (240 degs) at  5 mph.
  Altimeter:29.93 inches of mercury.
  The prevailing visibility was 10 miles.

The weather observed at MARTINSVILLE, VA (KMTV) at 07:15 PM EDT was:
  The skies were clear.
  Temperature: 95F ( 35C)  Dewpoint:  54F ( 12C)  Relative Humidity:  25%
  Winds from the W  (260 degs) at 10 mph.
  Altimeter:29.95 inches of mercury.
  The prevailing visibility was 10 miles.

The weather observed at MARTINSVILLE, VA (KMTV) at 07:35 PM EDT was:
  The skies were clear.
  Temperature: 91F ( 33C)  Dewpoint:  57F ( 14C)  Relative Humidity:  32%
  Winds from the WSW(250 degs) at 10 mph.
  Altimeter:29.96 inches of mercury.
  The prevailing visibility was 10 miles.

The weather observed at MARTINSVILLE, VA (KMTV) at 07:55 PM EDT was:
  The skies were clear.
  Temperature: 90F ( 32C)  Dewpoint:  56F ( 13C)  Relative Humidity:  32%
  Winds from the WSW(250 degs) at  9 mph.
  Altimeter:29.97 inches of mercury.
  The prevailing visibility was 10 miles.
  The maximum temperature in the past 6 hours was  99F.

The weather observed at MARTINSVILLE, VA (KMTV) at 08:15 PM EDT was:
  The skies were clear.
  Temperature: 88F ( 31C)  Dewpoint:  57F ( 14C)  Relative Humidity:  36%
  Winds from the SW (240 degs) at  7 mph.
  Altimeter:29.98 inches of mercury.
  The prevailing visibility was 10 miles.

The weather observed at MARTINSVILLE, VA (KMTV) at 08:35 PM EDT was:
  The skies were clear.
  Temperature: 86F ( 30C)  Dewpoint:  59F ( 15C)  Relative Humidity:  40%
  Winds from the SW (240 degs) at  5 mph.
  Altimeter:29.99 inches of mercury.
  The prevailing visibility was 10 miles.

The weather observed at MARTINSVILLE, VA (KMTV) at 08:55 PM EDT was:
  The skies were clear.
  Temperature: 84F ( 29C)  Dewpoint:  59F ( 15C)  Relative Humidity:  43%
  Winds from the W  (260 degs) at  3 mph.
  Altimeter:29.99 inches of mercury.
  The prevailing visibility was 10 miles.

The weather observed at MARTINSVILLE, VA (KMTV) at 09:15 PM EDT was:
  The skies were clear.
  Temperature: 84F ( 29C)  Dewpoint:  61F ( 16C)  Relative Humidity:  45%
  Winds from the SSW(200 degs) at  3 mph.
  Altimeter:29.99 inches of mercury.
  The prevailing visibility was 10 miles.

The weather observed at MARTINSVILLE, VA (KMTV) at 09:35 PM EDT was:
  The skies were clear.
  Temperature: 82F ( 28C)  Dewpoint:  61F ( 16C)  Relative Humidity:  48%
  Winds from the S  (180 degs) at  3 mph.
  Altimeter:30.00 inches of mercury.
  The prevailing visibility was 10 miles.

The weather observed at MARTINSVILLE, VA (KMTV) at 09:55 PM EDT was:
  The skies were clear.
  Temperature: 81F ( 27C)  Dewpoint:  63F ( 17C)  Relative Humidity:  54%
  Winds from the CLM(CLM degs) at  0 mph.
  Altimeter:29.99 inches of mercury.
  The prevailing visibility was 10 miles.

The weather observed at MARTINSVILLE, VA (KMTV) at 10:15 PM EDT was:
  The skies were clear.
  Temperature: 82F ( 28C)  Dewpoint:  63F ( 17C)  Relative Humidity:  51%
  Winds from the CLM(CLM degs) at  0 mph.
  Altimeter:29.99 inches of mercury.
  The prevailing visibility was 10 miles.

The weather observed at MARTINSVILLE, VA (KMTV) at 10:35 PM EDT was:
  The skies were clear.
  Temperature: 81F ( 27C)  Dewpoint:  63F ( 17C)  Relative Humidity:  54%
  Winds from the CLM(CLM degs) at  0 mph.
  Altimeter:29.99 inches of mercury.
  The prevailing visibility was 10 miles.

The weather observed at MARTINSVILLE, VA (KMTV) at 10:55 PM EDT was:
  The skies were clear.
  Temperature: 79F ( 26C)  Dewpoint:  63F ( 17C)  Relative Humidity:  58%
  Winds from the CLM(CLM degs) at  0 mph.
  Altimeter:29.98 inches of mercury.
  The prevailing visibility was 10 miles.

The weather observed at MARTINSVILLE, VA (KMTV) at 11:15 PM EDT was:
  The skies were clear.
  Temperature: 77F ( 25C)  Dewpoint:  63F ( 17C)  Relative Humidity:  61%
  Winds from the CLM(CLM degs) at  0 mph.
  Altimeter:29.98 inches of mercury.
  The prevailing visibility was 10 miles.

The weather observed at MARTINSVILLE, VA (KMTV) at 11:35 PM EDT was:
  The skies were clear.
  Temperature: 77F ( 25C)  Dewpoint:  64F ( 18C)  Relative Humidity:  65%
  Winds from the CLM(CLM degs) at  0 mph.
  Altimeter:29.98 inches of mercury.
  The prevailing visibility was 10 miles.

The weather observed at MARTINSVILLE, VA (KMTV) at 11:55 PM EDT was:
  The skies were clear.
  Temperature: 75F ( 24C)  Dewpoint:  64F ( 18C)  Relative Humidity:  69%
  Winds from the S  (180 degs) at  3 mph.
  Altimeter:29.98 inches of mercury.
  The prevailing visibility was 10 miles.

The weather observed at MARTINSVILLE, VA (KMTV) at 12:15 AM EDT was:
  The skies were clear.
  Temperature: 77F ( 25C)  Dewpoint:  64F ( 18C)  Relative Humidity:  65%
  Winds from the S  (180 degs) at  5 mph.
  Altimeter:29.98 inches of mercury.
  The prevailing visibility was 10 miles.

The weather observed at MARTINSVILLE, VA (KMTV) at 12:35 AM EDT was:
  The skies were clear.
  Temperature: 77F ( 25C)  Dewpoint:  64F ( 18C)  Relative Humidity:  65%
  Winds from the CLM(CLM degs) at  0 mph.
  Altimeter:29.97 inches of mercury.
  The prevailing visibility was 10 miles.

The weather observed at MARTINSVILLE, VA (KMTV) at 12:55 AM EDT was:
  The skies were clear.
  Temperature: 76F ( 24C)  Dewpoint:  65F ( 18C)  Relative Humidity:  68%
  Winds from the CLM(CLM degs) at  0 mph.
  Altimeter:29.97 inches of mercury.
  The prevailing visibility was 10 miles.

The weather observed at MARTINSVILLE, VA (KMTV) at 01:15 AM EDT was:
  The skies were clear.
  Temperature: 75F ( 24C)  Dewpoint:  64F ( 18C)  Relative Humidity:  69%
  Winds from the CLM(CLM degs) at  0 mph.
  Altimeter:29.97 inches of mercury.
  The prevailing visibility was 10 miles.

The weather observed at MARTINSVILLE, VA (KMTV) at 01:35 AM EDT was:
  The skies were clear.
  Temperature: 72F ( 22C)  Dewpoint:  64F ( 18C)  Relative Humidity:  78%
  Winds from the CLM(CLM degs) at  0 mph.
  Altimeter:29.97 inches of mercury.
  The prevailing visibility was 10 miles.

The weather observed at MARTINSVILLE, VA (KMTV) at 01:55 AM EDT was:
  The skies were clear.
  Temperature: 72F ( 22C)  Dewpoint:  65F ( 19C)  Relative Humidity:  80%
  Winds from the CLM(CLM degs) at  0 mph.
  Altimeter:29.97 inches of mercury.
  The prevailing visibility was 10 miles.
  The maximum temperature in the past 6 hours was  90F.

The weather observed at MARTINSVILLE, VA (KMTV) at 02:15 AM EDT was:
  The skies were clear.
  Temperature: 72F ( 22C)  Dewpoint:  66F ( 19C)  Relative Humidity:  83%
  Winds from the S  (190 degs) at  3 mph.
  Altimeter:29.97 inches of mercury.
  The prevailing visibility was 10 miles.

The weather observed at MARTINSVILLE, VA (KMTV) at 02:35 AM EDT was:
  The skies were clear.
  Temperature: 72F ( 22C)  Dewpoint:  66F ( 19C)  Relative Humidity:  83%
  Winds from the S  (180 degs) at  5 mph.
  Altimeter:29.97 inches of mercury.
  The prevailing visibility was 10 miles.

The weather observed at MARTINSVILLE, VA (KMTV) at 02:55 AM EDT was:
  The skies were clear.
  Temperature: 72F ( 22C)  Dewpoint:  66F ( 19C)  Relative Humidity:  83%
  Winds from the CLM(CLM degs) at  0 mph.
  Altimeter:29.97 inches of mercury.
  The prevailing visibility was 10 miles.

The weather observed at MARTINSVILLE, VA (KMTV) at 03:15 AM EDT was:
  The skies were clear.
  Temperature: 72F ( 22C)  Dewpoint:  66F ( 19C)  Relative Humidity:  83%
  Winds from the S  (180 degs) at  3 mph.
  Altimeter:29.97 inches of mercury.
  The prevailing visibility was 10 miles.

The weather observed at MARTINSVILLE, VA (KMTV) at 03:35 AM EDT was:
  The skies were clear.
  Temperature: 72F ( 22C)  Dewpoint:  66F ( 19C)  Relative Humidity:  83%
  Winds from the CLM(CLM degs) at  0 mph.
  Altimeter:29.98 inches of mercury.
  The prevailing visibility was 10 miles.

The weather observed at MARTINSVILLE, VA (KMTV) at 03:55 AM EDT was:
  The skies were clear.
  Temperature: 72F ( 22C)  Dewpoint:  66F ( 19C)  Relative Humidity:  83%
  Winds from the CLM(CLM degs) at  0 mph.
  Altimeter:29.98 inches of mercury.
  The prevailing visibility was 10 miles.

The weather observed at MARTINSVILLE, VA (KMTV) at 04:15 AM EDT was:
  The skies were clear.
  Temperature: 70F ( 21C)  Dewpoint:  66F ( 19C)  Relative Humidity:  88%
  Winds from the CLM(CLM degs) at  0 mph.
  Altimeter:29.99 inches of mercury.
  The prevailing visibility was 10 miles.

The weather observed at MARTINSVILLE, VA (KMTV) at 04:35 AM EDT was:
  The skies were clear.
  The weather reported was haze.
  Temperature: 72F ( 22C)  Dewpoint:  66F ( 19C)  Relative Humidity:  83%
  Winds from the CLM(CLM degs) at  0 mph.
  Altimeter:29.99 inches of mercury.
  The prevailing visibility was 2 miles.

The weather observed at MARTINSVILLE, VA (KMTV) at 04:55 AM EDT was:
  The skies were clear.
  The weather reported was haze.
  Temperature: 72F ( 22C)  Dewpoint:  66F ( 19C)  Relative Humidity:  83%
  Winds from the CLM(CLM degs) at  0 mph.
  Altimeter:29.98 inches of mercury.
  The prevailing visibility was 2 miles.

The weather observed at MARTINSVILLE, VA (KMTV) at 05:15 AM EDT was:
  The skies were clear.
  Temperature: 73F ( 23C)  Dewpoint:  66F ( 19C)  Relative Humidity:  78%
  Winds from the CLM(CLM degs) at  0 mph.
  Altimeter:29.98 inches of mercury.
  The prevailing visibility was 10 miles.

The weather observed at MARTINSVILLE, VA (KMTV) at 05:35 AM EDT was:
  The skies were clear.
  Temperature: 72F ( 22C)  Dewpoint:  66F ( 19C)  Relative Humidity:  83%
  Winds from the CLM(CLM degs) at  0 mph.
  Altimeter:29.97 inches of mercury.
  The prevailing visibility was 10 miles.

The weather observed at MARTINSVILLE, VA (KMTV) at 05:55 AM EDT was:
  The skies were clear.
  Temperature: 70F ( 21C)  Dewpoint:  66F ( 19C)  Relative Humidity:  88%
  Winds from the CLM(CLM degs) at  0 mph.
  Altimeter:29.98 inches of mercury.
  The prevailing visibility was 10 miles.

The weather observed at MARTINSVILLE, VA (KMTV) at 06:15 AM EDT was:
  The skies were clear.
  Temperature: 70F ( 21C)  Dewpoint:  66F ( 19C)  Relative Humidity:  88%
  Winds from the CLM(CLM degs) at  0 mph.
  Altimeter:29.98 inches of mercury.
  The prevailing visibility was 10 miles.

The weather observed at MARTINSVILLE, VA (KMTV) at 06:35 AM EDT was:
  The skies were clear.
  Temperature: 70F ( 21C)  Dewpoint:  66F ( 19C)  Relative Humidity:  88%
  Winds from the CLM(CLM degs) at  0 mph.
  Altimeter:29.99 inches of mercury.
  The prevailing visibility was 10 miles.

The weather observed at MARTINSVILLE, VA (KMTV) at 06:55 AM EDT was:
  The skies were clear.
  Temperature: 70F ( 21C)  Dewpoint:  66F ( 19C)  Relative Humidity:  88%
  Winds from the CLM(CLM degs) at  0 mph.
  Altimeter:30.00 inches of mercury.
  The prevailing visibility was 10 miles.

The weather observed at MARTINSVILLE, VA (KMTV) at 07:15 AM EDT was:
  The skies were clear.
  Temperature: 72F ( 22C)  Dewpoint:  68F ( 20C)  Relative Humidity:  88%
  Winds from the CLM(CLM degs) at  0 mph.
  Altimeter:30.00 inches of mercury.
  The prevailing visibility was 10 miles.

The weather observed at MARTINSVILLE, VA (KMTV) at 07:35 AM EDT was:
  The skies were clear.
  Temperature: 73F ( 23C)  Dewpoint:  68F ( 20C)  Relative Humidity:  83%
  Winds from the CLM(CLM degs) at  0 mph.
  Altimeter:30.00 inches of mercury.
  The prevailing visibility was 10 miles.

The weather observed at MARTINSVILLE, VA (KMTV) at 07:55 AM EDT was:
  The skies were clear.
  Temperature: 75F ( 24C)  Dewpoint:  67F ( 20C)  Relative Humidity:  76%
  Winds from the CLM(CLM degs) at  0 mph.
  Altimeter:30.00 inches of mercury.
  The prevailing visibility was 10 miles.
  The maximum temperature in the past 6 hours was  75F.

The weather observed at MARTINSVILLE, VA (KMTV) at 08:15 AM EDT was:
  The skies were clear.
  Temperature: 77F ( 25C)  Dewpoint:  68F ( 20C)  Relative Humidity:  74%
  Winds from the CLM(CLM degs) at  0 mph.
  Altimeter:30.00 inches of mercury.
  The prevailing visibility was 10 miles.

The weather observed at MARTINSVILLE, VA (KMTV) at 08:35 AM EDT was:
  The skies were clear.
  Temperature: 77F ( 25C)  Dewpoint:  66F ( 19C)  Relative Humidity:  69%
  Winds from the CLM(CLM degs) at  0 mph.
  Altimeter:30.01 inches of mercury.
  The prevailing visibility was 10 miles.

The weather observed at MARTINSVILLE, VA (KMTV) at 08:55 AM EDT was:
  The skies were clear.
  Temperature: 79F ( 26C)  Dewpoint:  68F ( 20C)  Relative Humidity:  70%
  Winds from the CLM(CLM degs) at  0 mph.
  Altimeter:30.02 inches of mercury.
  The prevailing visibility was 10 miles.

The weather observed at MARTINSVILLE, VA (KMTV) at 09:15 AM EDT was:
  The skies were clear.
  Temperature: 81F ( 27C)  Dewpoint:  66F ( 19C)  Relative Humidity:  62%
  Winds from the CLM(CLM degs) at  0 mph.
  Altimeter:30.02 inches of mercury.
  The prevailing visibility was 10 miles.

The weather observed at MARTINSVILLE, VA (KMTV) at 09:35 AM EDT was:
  The skies were clear.
  Temperature: 82F ( 28C)  Dewpoint:  68F ( 20C)  Relative Humidity:  62%
  Winds from the SSW(200 degs) at  3 mph.
  Altimeter:30.02 inches of mercury.
  The prevailing visibility was 10 miles.

The weather observed at MARTINSVILLE, VA (KMTV) at 09:55 AM EDT was:
  The skies were partly cloudy.
  Temperature: 84F ( 29C)  Dewpoint:  68F ( 20C)  Relative Humidity:  58%
  Winds from the CLM(CLM degs) at  0 mph.
  Altimeter:30.02 inches of mercury.
  The prevailing visibility was 10 miles.

The weather observed at MARTINSVILLE, VA (KMTV) at 10:15 AM EDT was:
  The skies were partly cloudy.
  Temperature: 84F ( 29C)  Dewpoint:  68F ( 20C)  Relative Humidity:  58%
  Winds from the S  (180 degs) at  3 mph.
  Altimeter:30.02 inches of mercury.
  The prevailing visibility was 10 miles.

The weather observed at MARTINSVILLE, VA (KMTV) at 10:35 AM EDT was:
  The skies were clear.
  Temperature: 86F ( 30C)  Dewpoint:  68F ( 20C)  Relative Humidity:  55%
  Winds from the SW (240 degs) at  3 mph.
  Altimeter:30.02 inches of mercury.
  The prevailing visibility was 10 miles.

The weather observed at MARTINSVILLE, VA (KMTV) at 10:55 AM EDT was:
  The skies were clear.
  Temperature: 88F ( 31C)  Dewpoint:  66F ( 19C)  Relative Humidity:  49%
  Winds from the SSW(200 degs) at  3 mph.
  Altimeter:30.02 inches of mercury.
  The prevailing visibility was 10 miles.

The weather observed at MARTINSVILLE, VA (KMTV) at 11:15 AM EDT was:
  The skies were clear.
  Temperature: 90F ( 32C)  Dewpoint:  66F ( 19C)  Relative Humidity:  46%
  Winds from the S  (190 degs) at  6 mph.
  Altimeter:30.01 inches of mercury.
  The prevailing visibility was 10 miles.

The weather observed at MARTINSVILLE, VA (KMTV) at 11:35 AM EDT was:
  The skies were clear.
  Temperature: 90F ( 32C)  Dewpoint:  64F ( 18C)  Relative Humidity:  43%
  Winds from the S  (180 degs) at  5 mph.
  Altimeter:30.02 inches of mercury.
  The prevailing visibility was 10 miles.

The weather observed at MARTINSVILLE, VA (KMTV) at 11:55 AM EDT was:
  The skies were clear.
  Temperature: 91F ( 33C)  Dewpoint:  66F ( 19C)  Relative Humidity:  44%
  Winds from the S  (190 degs) at  7 mph.
  Altimeter:30.01 inches of mercury.
  The prevailing visibility was 10 miles.

The weather observed at MARTINSVILLE, VA (KMTV) at 12:15 PM EDT was:
  The skies were clear.
  Temperature: 91F ( 33C)  Dewpoint:  64F ( 18C)  Relative Humidity:  41%
  Winds from the SSW(200 degs) at  7 mph.
  Altimeter:30.00 inches of mercury.
  The prevailing visibility was 10 miles.

The weather observed at MARTINSVILLE, VA (KMTV) at 12:35 PM EDT was:
  The skies were clear.
  Temperature: 91F ( 33C)  Dewpoint:  66F ( 19C)  Relative Humidity:  44%
  Winds from the SW (240 degs) at  9 mph.
  Altimeter:30.00 inches of mercury.
  The prevailing visibility was 10 miles.

The weather observed at MARTINSVILLE, VA (KMTV) at 12:55 PM EDT was:
  The skies were clear.
  Temperature: 93F ( 34C)  Dewpoint:  66F ( 19C)  Relative Humidity:  41%
  Winds from the S  (190 degs) at  8 mph.
  Altimeter:30.00 inches of mercury.
  The prevailing visibility was 10 miles.

The weather observed at MARTINSVILLE, VA (KMTV) at 01:15 PM EDT was:
  The skies were clear.
  Temperature: 93F ( 34C)  Dewpoint:  66F ( 19C)  Relative Humidity:  41%
  Winds from the SSW(200 degs) at  5 mph.
  Altimeter:29.99 inches of mercury.
  The prevailing visibility was 10 miles.

The weather observed at MARTINSVILLE, VA (KMTV) at 01:35 PM EDT was:
  The skies were clear.
  Temperature: 93F ( 34C)  Dewpoint:  64F ( 18C)  Relative Humidity:  39%
  Winds from the WSW(250 degs) at  9 mph.
  Altimeter:29.97 inches of mercury.
  The prevailing visibility was 10 miles.

The weather observed at MARTINSVILLE, VA (KMTV) at 01:55 PM EDT was:
  The skies were clear.
  Temperature: 95F ( 35C)  Dewpoint:  62F ( 17C)  Relative Humidity:  34%
  Winds from the SW (210 degs) at  7 mph.
  Altimeter:29.97 inches of mercury.
  The prevailing visibility was 10 miles.
  The maximum temperature in the past 6 hours was  95F.

The weather observed at MARTINSVILLE, VA (KMTV) at 02:15 PM EDT was:
  The skies were clear.
  Temperature: 95F ( 35C)  Dewpoint:  61F ( 16C)  Relative Humidity:  32%
  Winds from the SW (210 degs) at 10 mph.
  Altimeter:29.96 inches of mercury.
  The prevailing visibility was 10 miles.

The weather observed at MARTINSVILLE, VA (KMTV) at 02:35 PM EDT was:
  The skies were mostly cloudy.
  Temperature: 95F ( 35C)  Dewpoint:  63F ( 17C)  Relative Humidity:  34%
  Winds from the S  (180 degs) at 12 mph.
  Altimeter:29.95 inches of mercury.
  The prevailing visibility was 10 miles.

The weather observed at MARTINSVILLE, VA (KMTV) at 02:55 PM EDT was:
  The skies were partly cloudy.
  Temperature: 97F ( 36C)  Dewpoint:  63F ( 17C)  Relative Humidity:  33%
  Winds from the SSW(200 degs) at  7 mph.
  Altimeter:29.95 inches of mercury.
  The prevailing visibility was 10 miles.

The weather observed at MARTINSVILLE, VA (KMTV) at 03:15 PM EDT was:
  The skies were clear.
  Temperature: 95F ( 35C)  Dewpoint:  63F ( 17C)  Relative Humidity:  34%
  Winds from the SSW(200 degs) at  9 mph.
  Altimeter:29.95 inches of mercury.
  The prevailing visibility was 10 miles.

The weather observed at MARTINSVILLE, VA (KMTV) at 03:35 PM EDT was:
  The skies were clear.
  Temperature: 97F ( 36C)  Dewpoint:  61F ( 16C)  Relative Humidity:  31%
  Winds from the SW (210 degs) at  8 mph.
  Altimeter:29.95 inches of mercury.
  The prevailing visibility was 10 miles.

The weather observed at MARTINSVILLE, VA (KMTV) at 03:55 PM EDT was:
  The skies were partly cloudy.
  Temperature: 93F ( 34C)  Dewpoint:  61F ( 16C)  Relative Humidity:  34%
  Winds from the SW (240 degs) at  7 mph.
  Altimeter:29.94 inches of mercury.
  The prevailing visibility was 10 miles.

The weather observed at MARTINSVILLE, VA (KMTV) at 04:15 PM EDT was:
  The skies were mostly cloudy.
  The weather reported was light rain.
  Temperature: 90F ( 32C)  Dewpoint:  63F ( 17C)  Relative Humidity:  41%
  Winds from the WSW(250 degs) at  8 mph.
  Altimeter:29.94 inches of mercury.
  The prevailing visibility was 10 miles.

Short Range Forecast

Sorry no data found for mtv
Make sure mtv is a valid station
You might need to specify a nearby major city
Try Again

Zone Forecast

VAZ043-170300-
Henry-
Including the city of Martinsville
302 PM EDT Tue Jul 16 2024

.THIS AFTERNOON...Mostly sunny with a slight chance of showers
and thunderstorms. Hot. Near steady temperature in the upper 90s.
Southwest winds around 10 mph. Chance of rain 20 percent.
.TONIGHT...Partly cloudy with a slight chance of showers and
thunderstorms in the evening, then mostly clear after midnight.
Humid with lows in the mid 70s. Southwest winds 5 to 10 mph.
Chance of rain 20 percent.
.WEDNESDAY...Sunny in the morning, then partly sunny with showers
likely with a chance of thunderstorms in the afternoon. Hot with
highs in the mid 90s. Southwest winds 5 to 10 mph. Chance of rain
70 percent.
.WEDNESDAY NIGHT...Mostly cloudy with showers and thunderstorms
likely in the evening, then partly cloudy with a chance of
showers and thunderstorms after midnight. Humid with lows in the
lower 70s. Southwest winds 5 to 10 mph. Chance of rain
70 percent.
.THURSDAY...Partly sunny in the morning, then becoming mostly
cloudy. A chance of thunderstorms. A chance of showers in the
morning, then showers in the afternoon. Humid with highs in the
upper 80s. Northwest winds around 5 mph. Chance of rain
80 percent.
.THURSDAY NIGHT...Mostly cloudy. Showers with a chance of
thunderstorms in the evening, then a chance of showers after
midnight. Lows in the upper 60s. Chance of rain 80 percent.
.FRIDAY...Partly sunny. A chance of showers and thunderstorms in
the afternoon. Highs in the lower 80s. Chance of rain 40 percent.
.FRIDAY NIGHT...Mostly cloudy with a chance of showers and
thunderstorms. Lows in the upper 60s. Chance of rain 50 percent.
.SATURDAY AND SATURDAY NIGHT...Mostly cloudy with showers likely
with a chance of thunderstorms. Highs in the mid 80s. Lows in the
upper 60s. Chance of rain 70 percent.
.SUNDAY AND SUNDAY NIGHT...Mostly cloudy. Showers likely with a
chance of thunderstorms. Highs in the upper 80s. Lows in the
upper 60s. Chance of rain 60 percent.
.MONDAY...Partly sunny. A chance of showers in the morning, then
showers likely with a chance of thunderstorms in the afternoon.
Highs in the mid 80s. Chance of rain 70 percent.


State Forecast

Sorry no data found for mtv
Make sure mtv is a valid station
You might need to specify a nearby major city
Try Again

State Forecast Discussion

Sorry no data found for mtv
Make sure mtv is a valid station
You might need to specify a nearby major city
Try Again

GFS Short-Range Model Output Statistics (MOS) Forecast

KMTV   GFS MOS GUIDANCE    7/16/2024  1200 UTC
DT /JULY 16/JULY 17                /JULY 18                /JULY 19
HR   18 21 00 03 06 09 12 15 18 21 00 03 06 09 12 15 18 21 00 06 12
N/X                    70          90          71          84    62
TMP  94 93 85 77 73 72 75 86 88 85 79 74 72 72 72 79 81 80 75 66 67
DPT  67 69 72 70 69 69 71 72 70 71 73 73 72 72 72 73 70 69 71 66 65
CLD  SC BK BK OV BK BK SC FW OV OV OV OV OV OV OV OV OV OV BK OV BK
WDR  22 23 21 23 00 00 24 24 24 27 25 00 00 34 01 01 34 33 35 00 01
WSP  04 04 02 01 00 00 01 03 05 05 01 00 00 01 01 04 03 04 01 00 02
P06        18    14    10     2    54    39    27    28    43 19  8
P12                    17          63          58          54    22
Q06         0     0     0     0     3     1     0     0     1  0  0
Q12                     0           2           2           1     0
T06     35/25 25/ 6  2/ 1  5/ 7 55/30 30/ 6 13/ 2 17/ 6 34/21  3/ 0
T12           49/25        5/ 8       70/31       25/ 6    39/21
CIG   8  8  8  8  8  8  8  8  8  8  8  7  3  1  5  6  7  7  8  7  7
VIS   7  7  7  7  7  7  7  7  7  7  7  7  5  5  6  7  7  7  7  7  7
OBV   N  N  N  N  N  N  N  N  N  N  N  N BR BR BR  N  N  N  N  N  N

GFS Long-Range Model Output Statistics (MOS) Forecast

KMTV   GFSX MOS GUIDANCE   7/16/2024  1200 UTC
FHR  24  36| 48  60| 72  84| 96 108|120 132|144 156|168 180|192
     WED 17| THU 18| FRI 19| SAT 20| SUN 21| MON 22| TUE 23|WED CLIMO
N/X  70  90| 71  84| 62  85| 65  84| 65  89| 66  86| 66  89| 64 65 87
TMP  75  79| 72  75| 67  76| 69  76| 70  78| 70  76| 70  79| 68
DPT  71  73| 72  71| 65  70| 69  75| 70  73| 70  73| 70  73| 68
CLD  PC  OV| OV  OV| OV  OV| OV  OV| OV  OV| OV  OV| OV  OV| PC
WND   2   5|  1   4|  2   5|  1   2|  1   3|  1   3|  1   4|  1
P12  17  63| 58  54| 22  34| 34  54| 40  37| 38  42| 37  36| 29999999
P24      63|     74|     46|     63|     60|     61|     64|      999
Q12   0   2|  2   1|  0   0|  0   3|  1   1|  2   4|       |
Q24       1|      2|      1|      3|      2|      4|       |
T12  25  55| 36  45| 17  34| 20  46| 26  41| 26  41| 22  37| 16
T24        | 64    | 45    | 37    | 58    | 54    | 42    | 37

NGM Model Output Statistics (MOS) Forecast

Climatological Summary

Sorry no data found for mtv
Make sure mtv is a valid station
You might need to specify a nearby major city
Try Again

Watch and Warning Statment

Sorry no data found for mtv
Make sure mtv is a valid station
You might need to specify a nearby major city
or it could be THERE ARE NO WATCHES OR WARNINGS for mtv
Try Again

Park/Ski Recreation Report/Forecast

Sorry no data found for mtv
Make sure mtv is a valid station
You might need to specify a nearby major city
Try Again